createdAt,value
2023-02-22T00:02:37.796Z,100478.47
2023-02-22T00:05:47.479Z,100483.53
2023-02-22T00:08:52.453Z,100483.19
2023-02-22T00:11:58.938Z,100475.97
2023-02-22T00:15:02.200Z,100477.37
2023-02-22T00:18:07.227Z,100478.75
2023-02-22T00:21:12.227Z,100483.59
2023-02-22T00:24:23.533Z,100480.09
2023-02-22T00:27:26.999Z,100485.72
2023-02-22T00:30:32.155Z,100482.69
2023-02-22T00:33:36.699Z,100484.56
2023-02-22T00:36:46.327Z,100422.41
2023-02-22T00:39:51.215Z,100480.81
2023-02-22T00:42:54.671Z,100482.84
2023-02-22T00:45:58.635Z,100483.09
2023-02-22T00:49:02.083Z,100480.19
2023-02-22T00:52:05.833Z,100479.28
2023-02-22T00:55:15.052Z,100478.34
2023-02-22T00:58:18.784Z,100473.28
2023-02-22T01:01:24.738Z,100470.16
2023-02-22T01:04:28.132Z,100450.81
2023-02-22T01:07:31.749Z,100470.59
2023-02-22T01:10:38.569Z,100471.72
2023-02-22T01:13:42.069Z,100460.41
2023-02-22T01:16:45.329Z,100460.59
2023-02-22T01:19:50.976Z,100452.38
2023-02-22T01:22:56.518Z,100470.56
2023-02-22T01:25:59.926Z,100462.47
2023-02-22T01:29:05.601Z,100469.59
2023-02-22T01:32:09.576Z,100463.03
2023-02-22T01:35:18.773Z,100454.81
2023-02-22T01:38:22.289Z,100467.16
2023-02-22T01:41:25.471Z,100468.19
2023-02-22T01:44:38.527Z,100455.50
2023-02-22T01:47:42.556Z,100459.88
2023-02-22T01:50:57.452Z,100450.06
2023-02-22T01:54:06.859Z,100455.69
2023-02-22T01:57:22.302Z,100457.00
2023-02-22T02:00:30.786Z,100458.34
2023-02-22T02:03:39.586Z,100461.84
2023-02-22T02:06:44.370Z,100465.56
2023-02-22T02:10:00.387Z,100462.59
2023-02-22T02:13:04.706Z,100459.38
2023-02-22T02:16:08.230Z,100455.28
2023-02-22T02:19:39.648Z,100458.97
2023-02-22T02:23:10.742Z,100444.34
2023-02-22T02:27:05.436Z,100453.81
2023-02-22T02:30:12.106Z,100460.13
2023-02-22T02:33:30.084Z,100460.47
2023-02-22T02:37:12.565Z,100453.31
2023-02-22T02:40:26.402Z,100447.28
2023-02-22T02:43:38.233Z,100441.66
2023-02-22T02:47:01.233Z,100456.25
2023-02-22T02:50:18.840Z,100453.06
2023-02-22T02:53:27.554Z,100446.00
2023-02-22T02:56:31.267Z,100446.09
2023-02-22T02:59:40.312Z,100437.66
2023-02-22T03:03:16.640Z,100456.22
2023-02-22T03:06:50.471Z,100450.75
2023-02-22T03:10:21.844Z,100441.50
2023-02-22T03:13:40.623Z,100452.09
2023-02-22T03:17:09.028Z,100462.47
2023-02-22T03:20:22.595Z,100466.75
2023-02-22T03:23:34.441Z,100459.06
2023-02-22T03:26:46.630Z,100465.38
2023-02-22T03:29:56.572Z,100470.81
2023-02-22T03:33:09.618Z,100476.25
2023-02-22T03:36:29.791Z,100470.22
2023-02-22T03:39:37.460Z,100474.09
2023-02-22T03:42:47.806Z,100472.13
2023-02-22T03:45:51.455Z,100480.69
2023-02-22T03:49:05.471Z,100464.81
2023-02-22T03:52:09.754Z,100480.72
2023-02-22T03:55:17.818Z,100480.09
2023-02-22T03:58:23.032Z,100489.88
2023-02-22T04:01:27.014Z,100475.72
2023-02-22T04:04:30.652Z,100484.13
2023-02-22T04:07:33.977Z,100485.50
2023-02-22T04:10:38.478Z,100488.25
2023-02-22T04:13:41.746Z,100482.50
2023-02-22T04:16:45.177Z,100491.88
2023-02-22T04:19:50.022Z,100502.09
2023-02-22T04:22:55.940Z,100495.31
2023-02-22T04:25:59.283Z,100475.38
2023-02-22T04:29:04.375Z,100496.97
2023-02-22T04:32:08.588Z,100501.59
2023-02-22T04:35:12.434Z,100510.69
2023-02-22T04:38:16.645Z,100487.31
2023-02-22T04:41:23.897Z,100500.97
2023-02-22T04:44:28.828Z,100501.16
2023-02-22T04:47:35.004Z,100478.41
2023-02-22T04:50:40.675Z,100493.91
2023-02-22T04:53:45.661Z,100491.22
2023-02-22T04:56:50.114Z,100492.19
2023-02-22T04:59:54.252Z,100489.38
2023-02-22T05:02:58.716Z,100493.16
2023-02-22T05:06:02.956Z,100501.59
2023-02-22T05:09:06.512Z,100482.16
2023-02-22T05:12:10.315Z,100502.88
2023-02-22T05:15:20.148Z,100516.28
2023-02-22T05:18:23.854Z,100515.81
2023-02-22T05:21:27.048Z,100505.72
2023-02-22T05:24:30.433Z,100502.31
2023-02-22T05:27:33.553Z,100514.91
2023-02-22T05:30:39.826Z,100527.19
2023-02-22T05:33:43.325Z,100528.25
2023-02-22T05:36:46.865Z,100532.06
2023-02-22T05:39:51.124Z,100538.72
2023-02-22T05:42:55.360Z,100547.75
2023-02-22T05:45:58.530Z,100553.28
2023-02-22T05:49:02.107Z,100561.81
2023-02-22T05:52:05.569Z,100563.78
2023-02-22T05:55:11.052Z,100571.72
2023-02-22T05:58:15.281Z,100561.03
2023-02-22T06:01:19.668Z,100582.31
2023-02-22T06:04:23.685Z,100581.28
2023-02-22T06:07:27.400Z,100565.47
2023-02-22T06:10:31.333Z,100594.50
2023-02-22T06:13:36.722Z,100589.25
2023-02-22T06:16:41.470Z,100584.88
2023-02-22T06:19:44.702Z,100576.13
2023-02-22T06:22:49.956Z,100596.97
2023-02-22T06:25:53.409Z,100605.81
2023-02-22T06:28:56.847Z,100594.88
2023-02-22T06:32:00.210Z,100600.94
2023-02-22T06:35:03.714Z,100599.41
2023-02-22T06:38:06.926Z,100600.00
2023-02-22T06:41:10.393Z,100594.97
2023-02-22T06:44:15.214Z,100596.00
2023-02-22T06:47:18.908Z,100596.22
2023-02-22T06:50:30.742Z,100591.78
2023-02-22T06:53:35.199Z,100595.16
2023-02-22T06:56:38.526Z,100591.22
2023-02-22T06:59:42.153Z,100598.09
2023-02-22T07:02:48.476Z,100610.03
2023-02-22T07:05:52.464Z,100600.84
2023-02-22T07:08:55.741Z,100581.28
2023-02-22T07:11:59.655Z,100601.41
2023-02-22T07:15:02.792Z,100604.75
2023-02-22T07:18:07.559Z,100600.19
2023-02-22T07:21:10.889Z,100585.03
2023-02-22T07:24:15.072Z,100594.59
2023-02-22T07:27:18.483Z,100595.28
2023-02-22T07:30:25.642Z,100601.09
2023-02-22T07:33:29.025Z,100618.47
2023-02-22T07:36:32.694Z,100608.81
2023-02-22T07:39:38.163Z,100613.69
2023-02-22T07:43:02.733Z,100615.28
2023-02-22T07:46:06.144Z,100613.75
2023-02-22T07:49:09.796Z,100612.78
2023-02-22T07:52:13.191Z,100604.84
2023-02-22T07:55:18.643Z,100615.12
2023-02-22T07:58:24.510Z,100609.16
2023-02-22T08:01:28.115Z,100605.81
2023-02-22T08:04:32.240Z,100604.31
2023-02-22T08:07:35.305Z,100600.38
2023-02-22T08:10:39.769Z,100602.13
2023-02-22T08:13:43.027Z,100618.91
2023-02-22T08:16:46.454Z,100606.03
2023-02-22T08:19:49.562Z,100617.13
2023-02-22T08:22:53.619Z,100619.81
2023-02-22T08:25:56.839Z,100598.19
2023-02-22T08:29:00.299Z,100613.00
2023-02-22T08:32:03.937Z,100613.81
2023-02-22T08:35:07.885Z,100607.22
2023-02-22T08:38:26.505Z,100608.56
2023-02-22T08:41:30.571Z,100604.81
2023-02-22T08:44:34.129Z,100599.25
2023-02-22T08:47:37.606Z,100599.84
2023-02-22T08:50:41.975Z,100590.13
2023-02-22T08:53:45.442Z,100595.28
2023-02-22T08:56:49.349Z,100598.34
2023-02-22T08:59:53.615Z,100592.94
2023-02-22T09:02:56.912Z,100586.75
2023-02-22T09:06:00.601Z,100592.47
2023-02-22T09:09:04.016Z,100589.69
2023-02-22T09:12:07.612Z,100581.53
2023-02-22T09:15:12.128Z,100596.28
2023-02-22T09:18:18.254Z,100592.94
2023-02-22T09:21:22.816Z,100587.41
2023-02-22T09:24:28.177Z,100594.25
2023-02-22T09:27:32.659Z,100588.81
2023-02-22T09:30:36.825Z,100585.47
2023-02-22T09:33:41.356Z,100592.28
2023-02-22T09:36:47.859Z,100589.81
2023-02-22T09:39:51.560Z,100577.84
2023-02-22T09:43:17.090Z,100577.62
2023-02-22T09:46:30.903Z,100580.66
2023-02-22T09:49:39.203Z,100575.94
2023-02-22T09:53:05.579Z,100575.72
2023-02-22T09:56:17.571Z,100569.56
2023-02-22T09:59:27.474Z,100567.81
2023-02-22T10:02:38.605Z,100571.09
2023-02-22T10:05:49.142Z,100577.78
2023-02-22T10:08:56.733Z,100575.66
2023-02-22T10:12:12.859Z,100586.56
2023-02-22T10:15:46.226Z,100587.94
2023-02-22T10:19:33.592Z,100578.72
2023-02-22T10:22:37.594Z,100572.63
2023-02-22T10:25:42.753Z,100577.50
2023-02-22T10:29:04.460Z,100568.41
2023-02-22T10:32:17.204Z,100568.34
2023-02-22T10:35:25.784Z,100565.13
2023-02-22T10:38:34.104Z,100564.59
2023-02-22T10:41:41.312Z,100559.25
2023-02-22T10:44:44.712Z,100564.47
2023-02-22T10:47:49.362Z,100563.84
2023-02-22T10:50:57.528Z,100558.84
2023-02-22T10:54:14.164Z,100548.41
2023-02-22T10:57:33.076Z,100545.25
2023-02-22T11:00:39.568Z,100543.81
2023-02-22T11:03:43.112Z,100554.69
2023-02-22T11:07:06.297Z,100548.63
2023-02-22T11:10:10.338Z,100543.72
2023-02-22T11:13:25.992Z,100542.94
2023-02-22T11:16:43.483Z,100534.69
2023-02-22T11:19:49.120Z,100530.97
2023-02-22T11:23:01.088Z,100533.38
2023-02-22T11:26:09.716Z,100522.94
2023-02-22T11:29:36.405Z,100525.13
2023-02-22T11:33:01.678Z,100524.50
2023-02-22T11:36:09.414Z,100514.19
2023-02-22T11:39:34.712Z,100517.88
2023-02-22T11:42:39.886Z,100519.75
2023-02-22T11:46:03.777Z,100515.59
2023-02-22T11:49:13.206Z,100515.16
2023-02-22T11:52:19.700Z,100517.44
2023-02-22T11:55:41.739Z,100516.47
2023-02-22T11:59:18.049Z,100524.28
2023-02-22T12:03:03.332Z,100517.44
2023-02-22T12:06:08.358Z,100515.72
2023-02-22T12:09:58.353Z,100514.31
2023-02-22T12:13:18.835Z,100511.59
2023-02-22T12:16:59.802Z,100508.44
2023-02-22T12:20:24.923Z,100504.31
2023-02-22T12:23:56.902Z,100498.00
2023-02-22T12:27:09.862Z,100499.94
2023-02-22T12:30:23.762Z,100501.28
2023-02-22T12:33:31.949Z,100497.87
2023-02-22T12:36:51.941Z,100485.41
2023-02-22T12:40:13.668Z,100489.75
2023-02-22T12:43:41.837Z,100484.75
2023-02-22T12:46:50.598Z,100477.87
2023-02-22T12:50:23.599Z,100479.41
2023-02-22T12:53:37.176Z,100478.78
2023-02-22T12:56:48.302Z,100477.00
2023-02-22T12:59:56.374Z,100479.78
2023-02-22T13:03:04.982Z,100473.78
2023-02-22T13:06:31.807Z,100470.31
2023-02-22T13:09:50.257Z,100472.28
2023-02-22T13:12:53.766Z,100476.31
2023-02-22T13:16:08.449Z,100471.72
2023-02-22T13:19:37.270Z,100476.25
2023-02-22T13:23:08.872Z,100478.81
2023-02-22T13:26:32.635Z,100481.09
2023-02-22T13:29:42.208Z,100470.78
2023-02-22T13:33:04.660Z,100475.81
2023-02-22T13:36:29.254Z,100477.87
2023-02-22T13:40:00.463Z,100476.53
2023-02-22T13:43:09.624Z,100482.25
2023-02-22T13:46:50.185Z,100471.53
2023-02-22T13:50:24.726Z,100474.25
2023-02-22T13:53:37.206Z,100479.03
2023-02-22T13:56:49.882Z,100484.25
2023-02-22T14:00:15.144Z,100482.22
2023-02-22T14:03:24.650Z,100477.75
2023-02-22T14:06:38.325Z,100480.78
2023-02-22T14:09:50.700Z,100488.34
2023-02-22T14:12:54.070Z,100487.00
2023-02-22T14:16:00.705Z,100479.19
2023-02-22T14:19:09.827Z,100476.78
2023-02-22T14:22:29.917Z,100477.19
2023-02-22T14:25:40.708Z,100475.62
2023-02-22T14:28:50.489Z,100477.56
2023-02-22T14:32:11.183Z,100479.41
2023-02-22T14:35:44.584Z,100473.34
2023-02-22T14:38:40.158Z,100474.28
2023-02-22T14:41:51.496Z,100477.78
2023-02-22T14:44:54.524Z,100484.16
2023-02-22T14:48:25.393Z,100474.41
2023-02-22T14:51:43.579Z,100478.91
2023-02-22T14:54:59.839Z,100474.69
2023-02-22T14:58:25.748Z,100475.97
2023-02-22T15:01:49.056Z,100479.81
2023-02-22T15:04:57.012Z,100477.19
2023-02-22T15:08:03.843Z,100465.91
2023-02-22T15:11:21.373Z,100472.69
2023-02-22T15:14:26.918Z,100464.56
2023-02-22T15:17:30.305Z,100473.53
2023-02-22T15:20:38.390Z,100467.44
2023-02-22T15:23:49.060Z,100465.06
2023-02-22T15:27:02.553Z,100463.69
2023-02-22T15:30:20.336Z,100464.97
2023-02-22T15:33:31.790Z,100461.75
2023-02-22T15:36:35.325Z,100460.59
2023-02-22T15:39:44.089Z,100470.56
2023-02-22T15:42:48.988Z,100476.06
2023-02-22T15:45:52.913Z,100470.16
2023-02-22T15:49:15.667Z,100466.16
2023-02-22T15:52:24.157Z,100472.03
2023-02-22T15:55:29.708Z,100469.88
2023-02-22T15:58:34.296Z,100458.41
2023-02-22T16:01:46.653Z,100461.28
2023-02-22T16:04:59.854Z,100467.66
2023-02-22T16:08:03.317Z,100468.91
2023-02-22T16:11:15.493Z,100461.84
2023-02-22T16:14:40.090Z,100456.12
2023-02-22T16:17:55.945Z,100459.78
2023-02-22T16:21:05.345Z,100470.81
2023-02-22T16:24:26.375Z,100470.09
2023-02-22T16:27:31.020Z,100481.47
2023-02-22T16:30:37.839Z,100485.38
2023-02-22T16:33:43.106Z,100481.22
2023-02-22T16:36:51.693Z,100486.09
2023-02-22T16:39:56.808Z,100496.16
2023-02-22T16:43:12.042Z,100489.78
2023-02-22T16:46:16.263Z,100491.88
2023-02-22T16:49:21.005Z,100492.38
2023-02-22T16:52:25.586Z,100490.91
2023-02-22T16:55:30.155Z,100506.53
2023-02-22T16:58:37.284Z,100499.91
2023-02-22T17:01:42.993Z,100512.84
2023-02-22T17:04:50.448Z,100501.00
2023-02-22T17:07:54.197Z,100499.16
2023-02-22T17:11:01.110Z,100518.22
2023-02-22T17:14:05.822Z,100517.69
2023-02-22T17:17:14.089Z,100513.12
2023-02-22T17:20:32.249Z,100514.00
2023-02-22T17:23:36.322Z,100511.72
2023-02-22T17:26:42.008Z,100517.12
2023-02-22T17:29:45.510Z,100523.47
2023-02-22T17:32:51.791Z,100516.91
2023-02-22T17:35:57.923Z,100517.84
2023-02-22T17:39:03.981Z,100510.09
2023-02-22T17:42:11.355Z,100517.06
2023-02-22T17:45:17.750Z,100525.06
2023-02-22T17:48:25.824Z,100515.75
2023-02-22T17:51:31.396Z,100526.31
2023-02-22T17:54:36.448Z,100522.16
2023-02-22T17:57:44.720Z,100524.41
2023-02-22T18:00:51.452Z,100508.63
2023-02-22T18:04:01.815Z,100533.62
2023-02-22T18:07:07.067Z,100520.44
2023-02-22T18:10:13.059Z,100533.97
2023-02-22T18:13:24.048Z,100532.22
2023-02-22T18:16:29.408Z,100480.28
2023-02-22T18:19:39.353Z,100482.03
2023-02-22T18:22:46.860Z,100520.03
2023-02-22T18:26:09.775Z,100518.00
2023-02-22T18:29:17.192Z,100524.25
2023-02-22T18:32:23.813Z,100526.34
2023-02-22T18:35:32.611Z,100529.16
2023-02-22T18:38:43.592Z,100519.91
2023-02-22T18:41:52.195Z,100519.13
2023-02-22T18:45:01.340Z,100531.41
2023-02-22T18:48:08.301Z,100521.34
2023-02-22T18:51:16.525Z,100526.53
2023-02-22T18:54:22.736Z,100531.22
2023-02-22T18:57:31.005Z,100534.00
2023-02-22T19:00:36.888Z,100541.87
2023-02-22T19:03:42.118Z,100543.53
2023-02-22T19:06:50.394Z,100539.97
2023-02-22T19:09:57.762Z,100542.25
2023-02-22T19:13:05.494Z,100544.25
2023-02-22T19:16:11.260Z,100542.59
2023-02-22T19:19:22.495Z,100541.31
2023-02-22T19:22:33.531Z,100546.97
2023-02-22T19:25:41.933Z,100543.91
2023-02-22T19:28:48.951Z,100541.28
2023-02-22T19:31:53.950Z,100531.66
2023-02-22T19:35:07.711Z,100543.22
2023-02-22T19:38:14.050Z,100540.41
2023-02-22T19:41:23.282Z,100537.78
2023-02-22T19:44:34.391Z,100549.19
2023-02-22T19:47:40.048Z,100545.91
2023-02-22T19:50:52.046Z,100546.88
2023-02-22T19:54:03.300Z,100549.50
2023-02-22T19:57:11.020Z,100560.81
2023-02-22T20:00:25.026Z,100561.75
2023-02-22T20:03:36.465Z,100558.72
2023-02-22T20:06:43.241Z,100546.31
2023-02-22T20:09:50.624Z,100560.16
2023-02-22T20:12:56.560Z,100559.44
2023-02-22T20:16:02.566Z,100558.56
2023-02-22T20:19:10.062Z,100558.56
2023-02-22T20:22:16.850Z,100540.94
2023-02-22T20:25:23.359Z,100565.72
2023-02-22T20:28:29.336Z,100559.09
2023-02-22T20:31:34.933Z,100559.56
2023-02-22T20:34:41.358Z,100563.63
2023-02-22T20:37:48.206Z,100560.00
2023-02-22T20:40:58.051Z,100559.81
2023-02-22T20:44:07.626Z,100548.06
2023-02-22T20:47:13.913Z,100549.63
2023-02-22T20:50:19.725Z,100556.78
2023-02-22T20:53:25.991Z,100554.19
2023-02-22T20:56:32.666Z,100557.81
2023-02-22T20:59:49.020Z,100553.62
2023-02-22T21:02:54.856Z,100550.22
2023-02-22T21:06:00.486Z,100549.66
2023-02-22T21:09:10.206Z,100553.13
2023-02-22T21:12:21.939Z,100566.63
2023-02-22T21:15:28.162Z,100560.59
2023-02-22T21:18:34.388Z,100563.63
2023-02-22T21:21:43.547Z,100557.09
2023-02-22T21:24:50.272Z,100562.44
2023-02-22T21:27:54.825Z,100546.66
2023-02-22T21:31:09.313Z,100567.00
2023-02-22T21:34:17.613Z,100515.13
2023-02-22T21:37:22.668Z,100557.19
2023-02-22T21:40:28.138Z,100566.22
2023-02-22T21:43:33.371Z,100569.00
2023-02-22T21:46:37.528Z,100569.00
2023-02-22T21:49:41.618Z,100573.53
2023-02-22T21:52:47.727Z,100572.59
2023-02-22T21:55:53.648Z,100577.09
2023-02-22T21:58:59.495Z,100569.22
2023-02-22T22:02:03.889Z,100574.50
2023-02-22T22:05:07.722Z,100578.97
2023-02-22T22:08:19.379Z,100571.00
2023-02-22T22:11:25.161Z,100581.78
2023-02-22T22:14:28.458Z,100570.34
2023-02-22T22:17:32.541Z,100562.16
2023-02-22T22:20:39.301Z,100565.03
2023-02-22T22:23:46.174Z,100577.56
2023-02-22T22:26:56.260Z,100562.47
2023-02-22T22:30:01.933Z,100567.03
2023-02-22T22:33:12.683Z,100568.00
2023-02-22T22:36:18.066Z,100567.28
2023-02-22T22:39:21.427Z,100574.47
2023-02-22T22:42:25.875Z,100573.59
2023-02-22T22:45:29.100Z,100574.62
2023-02-22T22:48:36.234Z,100564.88
2023-02-22T22:51:41.168Z,100572.19
2023-02-22T22:54:44.942Z,100575.78
2023-02-22T22:57:48.151Z,100572.37
2023-02-22T23:00:57.200Z,100579.63
2023-02-22T23:04:03.814Z,100580.75
2023-02-22T23:07:07.327Z,100582.69
2023-02-22T23:10:12.793Z,100581.91
2023-02-22T23:13:16.502Z,100584.84
2023-02-22T23:16:20.018Z,100578.53
2023-02-22T23:19:23.700Z,100586.44
2023-02-22T23:22:28.002Z,100593.47
2023-02-22T23:25:33.080Z,100585.50
2023-02-22T23:28:38.609Z,100587.53
2023-02-22T23:31:42.386Z,100584.97
2023-02-22T23:34:49.760Z,100582.84
2023-02-22T23:37:53.859Z,100583.16
2023-02-22T23:41:04.776Z,100581.88
2023-02-22T23:44:17.728Z,100590.44
2023-02-22T23:47:21.074Z,100584.69
2023-02-22T23:50:29.175Z,100589.53
2023-02-22T23:53:32.699Z,100587.28
2023-02-22T23:56:39.311Z,100595.63
2023-02-22T23:59:43.466Z,100571.00
